createdAt,value
2019-04-26T03:40:49.404Z,0.00
2019-04-26T03:41:49.523Z,0.00
2019-04-26T03:42:50.078Z,0.00
2019-04-26T03:43:48.207Z,0.00
2019-04-26T03:44:48.825Z,0.00
2019-04-26T03:45:48.663Z,0.00
2019-04-26T03:46:47.819Z,0.00
2019-04-26T11:22:00.349Z,208.13
2019-04-26T11:23:00.486Z,202.50
2019-04-26T11:24:00.679Z,196.88
2019-04-26T11:25:01.385Z,196.88
2019-04-26T11:26:01.725Z,191.25
2019-04-26T11:27:00.233Z,191.25
2019-04-26T11:28:00.506Z,180.00
2019-04-26T11:29:00.561Z,180.00
2019-04-26T11:30:11.074Z,185.63
2019-04-26T11:31:00.582Z,196.88
2019-04-26T11:32:02.643Z,208.13
2019-04-26T11:33:01.270Z,213.75
2019-04-26T11:34:05.546Z,213.75
2019-04-26T11:35:00.473Z,213.75
2019-04-26T11:36:03.386Z,213.75
2019-04-26T11:37:00.083Z,213.75
2019-04-26T11:38:00.074Z,213.75
2019-04-26T11:39:01.360Z,202.50
2019-04-26T11:40:00.038Z,196.88
2019-04-26T11:41:06.186Z,191.25
2019-04-26T11:42:00.137Z,185.63
2019-04-26T11:43:00.146Z,191.25
2019-04-26T11:44:00.116Z,191.25
2019-04-26T11:45:06.015Z,185.63
2019-04-26T11:46:04.374Z,180.00
2019-04-26T11:47:02.925Z,185.63
2019-04-26T11:48:00.219Z,180.00
2019-04-26T11:49:03.161Z,180.00
2019-04-26T11:50:00.274Z,191.25
2019-04-26T11:51:00.367Z,208.13
2019-04-26T11:52:02.796Z,230.63
2019-04-26T11:53:00.327Z,230.63
2019-04-26T11:54:00.351Z,236.25
2019-04-26T11:55:00.350Z,225.00
2019-04-26T11:56:04.545Z,213.75
2019-04-26T11:57:00.387Z,196.88
2019-04-26T11:58:00.407Z,180.00
2019-04-26T11:59:00.437Z,174.38
2019-04-26T12:00:01.430Z,174.38
2019-04-26T12:01:00.505Z,174.38
2019-04-26T12:02:00.595Z,174.38
2019-04-26T12:03:00.605Z,180.00
2019-04-26T12:04:00.806Z,185.63
2019-04-26T12:05:00.558Z,196.88
2019-04-26T12:06:00.641Z,196.88
2019-04-26T12:07:00.645Z,208.13
2019-04-26T12:08:00.680Z,225.00
2019-04-26T12:09:00.734Z,241.88
2019-04-26T12:10:00.704Z,241.88
2019-04-26T12:11:00.714Z,253.13
2019-04-26T12:12:04.690Z,258.75
2019-04-26T12:13:05.874Z,253.13
2019-04-26T12:14:03.784Z,241.88
2019-04-26T12:15:03.888Z,241.88
2019-04-26T12:16:00.816Z,247.50
2019-04-26T12:17:01.332Z,253.13
2019-04-26T12:18:00.868Z,253.13
2019-04-26T12:19:00.921Z,236.25
2019-04-26T12:20:00.937Z,236.25
2019-04-26T12:21:02.050Z,225.00
2019-04-26T12:22:04.276Z,219.38
2019-04-26T12:23:00.963Z,219.38
2019-04-26T12:24:01.009Z,191.25
2019-04-26T12:25:03.393Z,185.63
2019-04-26T12:26:01.062Z,191.25
2019-04-26T12:27:01.085Z,196.88
2019-04-26T12:28:01.933Z,196.88
2019-04-26T12:29:01.096Z,196.88
2019-04-26T12:30:01.155Z,202.50
2019-04-26T12:31:01.111Z,213.75
2019-04-26T12:32:01.182Z,196.88
2019-04-26T12:33:01.152Z,191.25
2019-04-26T12:34:01.170Z,174.38
2019-04-26T12:35:01.211Z,185.63
2019-04-26T12:36:01.245Z,191.25
2019-04-26T12:37:01.329Z,208.13
2019-04-26T12:38:01.250Z,225.00
2019-04-26T12:39:02.175Z,213.75
2019-04-26T12:40:01.320Z,253.13
2019-04-26T12:41:01.319Z,253.13
2019-04-26T12:42:01.416Z,253.13
2019-04-26T12:43:01.392Z,196.88
2019-04-26T12:44:03.288Z,185.63
2019-04-26T12:45:01.429Z,180.00
2019-04-26T12:46:01.452Z,230.63
2019-04-26T12:47:03.525Z,163.13
2019-04-26T12:48:01.498Z,174.38
2019-04-26T12:49:01.492Z,163.13
2019-04-26T12:50:01.601Z,180.00
2019-04-26T12:51:01.549Z,157.50
2019-04-26T12:52:01.587Z,202.50
2019-04-26T12:53:01.624Z,219.38
2019-04-26T12:54:03.773Z,236.25
2019-04-26T12:55:01.685Z,163.13
2019-04-26T12:56:01.709Z,157.50
2019-04-26T12:57:05.721Z,185.63
2019-04-26T12:58:01.686Z,163.13
2019-04-26T12:59:01.763Z,157.50
2019-04-26T13:00:02.202Z,151.88
2019-04-26T13:01:01.820Z,146.25
2019-04-26T13:02:05.787Z,151.88
2019-04-26T13:03:01.861Z,174.38
2019-04-26T13:04:02.644Z,225.00
2019-04-26T13:05:01.901Z,168.75
2019-04-26T13:06:01.911Z,247.50
2019-04-26T13:07:02.304Z,163.13
2019-04-26T13:08:01.920Z,157.50
2019-04-26T13:09:02.127Z,151.88
2019-04-26T13:10:02.232Z,151.88
2019-04-26T13:11:02.022Z,146.25
2019-04-26T13:12:01.982Z,151.88
2019-04-26T13:13:02.027Z,258.75
2019-04-26T13:14:02.031Z,258.75
2019-04-26T13:15:02.102Z,219.38
2019-04-26T13:16:02.065Z,270.00
2019-04-26T13:17:02.236Z,191.25
2019-04-26T13:18:02.109Z,180.00
2019-04-26T13:19:02.168Z,185.63
2019-04-26T13:20:02.230Z,298.13
2019-04-26T13:21:03.124Z,326.25
2019-04-26T13:22:02.221Z,309.38
2019-04-26T13:23:02.305Z,309.38
2019-04-26T13:24:04.365Z,303.75
2019-04-26T13:25:02.281Z,298.13
2019-04-26T13:26:02.353Z,168.75
2019-04-26T13:27:06.181Z,151.88
2019-04-26T13:28:02.324Z,213.75
2019-04-26T13:29:02.347Z,146.25
2019-04-26T13:30:02.879Z,135.00
2019-04-26T13:31:02.703Z,196.88
2019-04-26T13:32:02.414Z,225.00
2019-04-26T13:33:02.428Z,241.88
2019-04-26T13:35:46.702Z,196.88
2019-04-26T13:36:42.602Z,135.00
2019-04-26T13:37:44.712Z,129.38
2019-04-26T13:38:43.373Z,123.75
2019-04-26T13:39:43.412Z,123.75
2019-04-26T13:40:51.472Z,146.25
2019-04-26T13:42:47.442Z,135.00
2019-04-26T13:43:47.163Z,140.63
2019-04-26T13:44:47.343Z,180.00
2019-04-26T13:45:47.325Z,196.88
2019-04-26T13:46:47.285Z,157.50
2019-04-26T13:47:48.848Z,213.75
2019-04-26T13:48:48.037Z,264.38
2019-04-26T13:49:48.196Z,180.00
2019-04-26T13:50:47.411Z,180.00
2019-04-26T13:51:47.535Z,185.63
2019-04-26T13:52:47.381Z,196.88
2019-04-26T13:53:47.480Z,264.38
2019-04-26T13:54:47.587Z,174.38
2019-04-26T13:55:47.449Z,168.75
2019-04-26T13:56:47.553Z,151.88
2019-04-26T13:57:47.563Z,151.88
2019-04-26T13:58:47.599Z,157.50
2019-04-26T13:59:56.331Z,151.88
2019-04-26T14:01:41.181Z,140.63
2019-04-26T14:02:41.097Z,135.00
2019-04-26T14:03:41.094Z,135.00
2019-04-26T14:04:41.118Z,135.00
2019-04-26T14:05:41.301Z,135.00
2019-04-26T14:06:41.177Z,123.75
2019-04-26T22:57:40.509Z,0.00
2019-04-26T22:58:40.526Z,0.00
